createdAt,value
2018-09-08T00:00:03.391Z,12.30
2018-09-08T00:02:35.937Z,12.30
2018-09-08T00:05:08.536Z,12.30
2018-09-08T00:07:41.091Z,12.30
2018-09-08T00:10:13.611Z,12.30
2018-09-08T00:12:46.167Z,12.30
2018-09-08T00:15:23.308Z,12.30
2018-09-08T00:18:00.546Z,12.30
2018-09-08T00:20:37.712Z,12.30
2018-09-08T00:23:14.996Z,12.30
2018-09-08T00:25:52.209Z,12.30
2018-09-08T00:28:29.603Z,12.30
2018-09-08T00:31:02.428Z,12.40
2018-09-08T00:33:35.013Z,12.40
2018-09-08T00:36:07.527Z,12.40
2018-09-08T00:38:40.590Z,12.40
2018-09-08T00:41:13.026Z,12.50
2018-09-08T00:43:45.632Z,12.50
2018-09-08T00:46:18.145Z,12.60
2018-09-08T00:48:50.726Z,12.60
2018-09-08T00:51:23.223Z,12.60
2018-09-08T00:53:55.733Z,12.70
2018-09-08T00:56:28.279Z,12.60
2018-09-08T00:59:06.667Z,12.60
2018-09-08T01:01:39.388Z,12.70
2018-09-08T01:04:11.922Z,12.70
2018-09-08T01:06:45.109Z,12.70
2018-09-08T01:09:17.786Z,12.70
2018-09-08T01:11:50.365Z,12.70
2018-09-08T01:14:22.872Z,12.70
2018-09-08T01:16:55.474Z,12.70
2018-09-08T01:19:28.016Z,12.70
2018-09-08T01:22:00.568Z,12.70
2018-09-08T01:24:34.638Z,12.70
2018-09-08T01:27:07.247Z,12.80
2018-09-08T01:29:39.859Z,12.80
2018-09-08T01:32:12.623Z,12.80
2018-09-08T01:34:45.131Z,12.90
2018-09-08T01:37:17.759Z,12.90
2018-09-08T01:39:50.242Z,12.90
2018-09-08T01:42:22.795Z,12.90
2018-09-08T01:44:55.277Z,12.90
2018-09-08T01:47:27.851Z,12.90
2018-09-08T01:50:00.404Z,12.90
2018-09-08T01:52:33.000Z,12.80
2018-09-08T01:55:05.450Z,12.80
2018-09-08T01:57:37.983Z,12.80
2018-09-08T02:00:11.502Z,12.80
2018-09-08T02:02:44.062Z,12.80
2018-09-08T02:05:16.643Z,12.80
2018-09-08T02:07:49.281Z,12.70
2018-09-08T02:10:21.761Z,12.70
2018-09-08T02:12:54.309Z,12.70
2018-09-08T02:15:26.794Z,12.60
2018-09-08T02:17:59.330Z,12.60
2018-09-08T02:20:31.916Z,12.60
2018-09-08T02:23:04.435Z,12.60
2018-09-08T02:25:36.972Z,12.50
2018-09-08T02:28:15.121Z,12.50
2018-09-08T02:30:47.568Z,12.50
2018-09-08T02:33:20.148Z,12.50
2018-09-08T02:35:52.690Z,12.50
2018-09-08T02:38:25.349Z,12.40
2018-09-08T02:40:57.845Z,12.50
2018-09-08T02:43:30.428Z,12.50
2018-09-08T02:46:02.932Z,12.50
2018-09-08T02:48:35.513Z,12.40
2018-09-08T02:51:04.499Z,12.40
2018-09-08T02:53:33.626Z,12.40
2018-09-08T02:56:02.619Z,12.50
2018-09-08T02:58:31.680Z,12.40
2018-09-08T03:01:00.713Z,12.40
2018-09-08T03:03:29.793Z,12.40
2018-09-08T03:05:58.793Z,12.40
2018-09-08T03:08:27.921Z,12.40
2018-09-08T03:10:56.929Z,12.40
2018-09-08T03:13:25.985Z,12.40
2018-09-08T03:15:54.981Z,12.30
2018-09-08T03:18:24.048Z,12.30
2018-09-08T03:20:53.047Z,12.30
2018-09-08T03:23:22.160Z,12.30
2018-09-08T03:25:51.160Z,12.30
2018-09-08T03:28:20.256Z,12.30
2018-09-08T03:30:49.264Z,12.30
2018-09-08T03:33:18.337Z,12.20
2018-09-08T03:35:47.307Z,12.20
2018-09-08T03:38:36.449Z,12.20
2018-09-08T03:41:06.851Z,12.20
2018-09-08T03:43:35.915Z,12.20
2018-09-08T03:46:04.954Z,12.20
2018-09-08T03:48:34.020Z,12.20
2018-09-08T03:51:03.060Z,12.20
2018-09-08T03:53:32.130Z,12.10
2018-09-08T03:56:01.196Z,12.10
2018-09-08T03:58:30.444Z,12.10
2018-09-08T04:00:59.523Z,12.10
2018-09-08T04:03:32.123Z,12.10
2018-09-08T04:06:04.639Z,12.20
2018-09-08T04:08:37.265Z,12.10
2018-09-08T04:11:10.002Z,12.10
2018-09-08T04:13:42.685Z,12.10
2018-09-08T04:16:15.175Z,12.10
2018-09-08T04:18:47.813Z,12.20
2018-09-08T04:21:20.371Z,12.10
2018-09-08T04:23:53.038Z,12.10
2018-09-08T04:26:25.659Z,12.10
2018-09-08T04:28:58.230Z,12.10
2018-09-08T04:31:30.691Z,12.10
2018-09-08T04:34:03.261Z,12.10
2018-09-08T04:36:35.787Z,12.10
2018-09-08T04:39:12.296Z,12.10
2018-09-08T04:41:44.849Z,12.10
2018-09-08T04:44:17.422Z,12.10
2018-09-08T04:46:49.944Z,12.10
2018-09-08T04:49:22.601Z,12.10
2018-09-08T04:51:55.174Z,12.10
2018-09-08T04:54:27.734Z,12.10
2018-09-08T04:57:00.240Z,12.10
2018-09-08T04:59:32.837Z,12.10
2018-09-08T05:02:05.410Z,12.10
2018-09-08T05:04:37.979Z,12.10
2018-09-08T05:07:10.436Z,12.10
2018-09-08T05:09:43.062Z,12.10
2018-09-08T05:12:15.663Z,12.10
2018-09-08T05:14:48.247Z,12.00
2018-09-08T05:17:20.906Z,12.10
2018-09-08T05:19:53.448Z,12.10
2018-09-08T05:22:25.916Z,12.10
2018-09-08T05:24:58.534Z,12.10
2018-09-08T05:27:31.117Z,12.20
2018-09-08T05:30:03.995Z,12.20
2018-09-08T05:32:36.531Z,12.20
2018-09-08T05:35:09.779Z,12.20
2018-09-08T05:37:42.243Z,12.20
2018-09-08T05:40:14.796Z,12.30
2018-09-08T05:42:47.647Z,12.30
2018-09-08T05:45:20.316Z,12.30
2018-09-08T05:47:52.833Z,12.40
2018-09-08T05:50:25.460Z,12.50
2018-09-08T05:52:57.949Z,12.50
2018-09-08T05:55:30.387Z,12.50
2018-09-08T05:58:02.900Z,12.50
2018-09-08T06:00:35.448Z,12.60
2018-09-08T06:03:07.937Z,12.60
2018-09-08T06:05:40.572Z,12.60
2018-09-08T06:08:13.057Z,12.60
2018-09-08T06:10:45.572Z,12.60
2018-09-08T06:13:18.096Z,12.60
2018-09-08T06:15:50.657Z,12.60
2018-09-08T06:18:23.173Z,12.70
2018-09-08T06:20:55.809Z,12.80
2018-09-08T06:23:28.436Z,12.80
2018-09-08T06:26:01.006Z,12.90
2018-09-08T06:28:34.160Z,12.90
2018-09-08T06:31:06.942Z,13.00
2018-09-08T06:33:39.760Z,13.10
2018-09-08T06:36:12.578Z,13.20
2018-09-08T06:38:45.456Z,13.20
2018-09-08T06:41:18.045Z,13.20
2018-09-08T06:43:53.028Z,13.30
2018-09-08T06:46:25.598Z,13.40
2018-09-08T06:48:58.063Z,13.40
2018-09-08T06:51:30.675Z,13.50
2018-09-08T06:54:03.236Z,13.50
2018-09-08T06:56:35.889Z,13.60
2018-09-08T06:59:08.445Z,13.60
2018-09-08T07:01:40.992Z,13.70
2018-09-08T07:04:13.502Z,13.80
2018-09-08T07:06:46.053Z,13.80
2018-09-08T07:09:18.565Z,13.90
2018-09-08T07:11:51.205Z,14.00
2018-09-08T07:14:23.657Z,14.10
2018-09-08T07:16:56.228Z,14.20
2018-09-08T07:19:29.773Z,14.40
2018-09-08T07:22:02.309Z,14.50
2018-09-08T07:24:34.799Z,14.70
2018-09-08T07:27:07.501Z,14.70
2018-09-08T07:29:40.038Z,14.70
2018-09-08T07:32:12.687Z,14.70
2018-09-08T07:34:45.235Z,14.60
2018-09-08T07:37:17.901Z,14.60
2018-09-08T07:39:50.404Z,14.70
2018-09-08T07:42:23.028Z,14.80
2018-09-08T07:44:55.567Z,14.80
2018-09-08T07:47:28.127Z,14.90
2018-09-08T07:50:00.727Z,15.00
2018-09-08T07:52:33.248Z,15.10
2018-09-08T07:55:05.757Z,15.20
2018-09-08T07:57:38.291Z,15.30
2018-09-08T08:00:10.981Z,15.50
2018-09-08T08:02:43.645Z,15.60
2018-09-08T08:05:16.144Z,15.70
2018-09-08T08:07:48.701Z,15.70
2018-09-08T08:10:21.231Z,15.80
2018-09-08T08:12:53.782Z,15.80
2018-09-08T08:15:26.329Z,15.90
2018-09-08T08:17:58.848Z,15.90
2018-09-08T08:20:31.346Z,15.90
2018-09-08T08:23:03.961Z,16.00
2018-09-08T08:25:36.437Z,16.00
2018-09-08T08:28:09.092Z,16.10
2018-09-08T08:30:41.716Z,16.20
2018-09-08T08:33:14.212Z,16.30
2018-09-08T08:35:46.708Z,16.50
2018-09-08T08:38:19.299Z,16.60
2018-09-08T08:40:51.757Z,16.70
2018-09-08T08:43:24.349Z,16.80
2018-09-08T08:45:56.876Z,16.90
2018-09-08T08:48:29.451Z,16.90
2018-09-08T08:51:23.306Z,17.00
2018-09-08T08:54:20.020Z,17.10
2018-09-08T08:56:52.550Z,17.20
2018-09-08T08:59:25.141Z,17.30
2018-09-08T09:02:02.044Z,17.30
2018-09-08T09:04:34.526Z,17.20
2018-09-08T09:07:07.305Z,17.20
2018-09-08T09:09:39.777Z,17.20
2018-09-08T09:12:12.316Z,17.20
2018-09-08T09:14:44.702Z,17.10
2018-09-08T09:17:17.354Z,17.00
2018-09-08T09:20:11.140Z,17.10
2018-09-08T09:23:05.666Z,17.10
2018-09-08T09:25:37.965Z,17.30
2018-09-08T09:28:10.696Z,17.40
2018-09-08T09:30:43.629Z,17.50
2018-09-08T09:33:18.031Z,17.70
2018-09-08T09:35:50.729Z,17.80
2018-09-08T09:38:23.752Z,17.80
2018-09-08T09:40:56.821Z,18.00
2018-09-08T09:43:29.579Z,18.20
2018-09-08T09:46:02.221Z,18.30
2018-09-08T09:48:34.977Z,18.40
2018-09-08T09:51:07.610Z,18.40
2018-09-08T09:53:40.327Z,18.50
2018-09-08T09:56:12.979Z,18.50
2018-09-08T09:58:45.660Z,18.40
2018-09-08T10:01:21.851Z,18.30
2018-09-08T10:03:54.489Z,18.50
2018-09-08T10:06:27.023Z,18.70
2018-09-08T10:08:59.724Z,18.80
2018-09-08T10:11:32.260Z,18.90
2018-09-08T10:14:04.823Z,19.00
2018-09-08T10:16:37.342Z,19.10
2018-09-08T10:19:09.891Z,19.30
2018-09-08T10:21:42.831Z,19.40
2018-09-08T10:24:15.652Z,19.40
2018-09-08T10:26:48.278Z,19.50
2018-09-08T10:29:20.886Z,19.70
2018-09-08T10:31:53.339Z,19.60
2018-09-08T10:34:25.975Z,19.70
2018-09-08T10:36:58.476Z,19.80
2018-09-08T10:39:30.996Z,19.70
2018-09-08T10:42:03.418Z,19.70
2018-09-08T10:44:36.000Z,19.90
2018-09-08T10:47:08.556Z,20.10
2018-09-08T10:49:41.181Z,20.20
2018-09-08T10:52:31.445Z,20.30
2018-09-08T10:55:04.045Z,20.10
2018-09-08T10:57:36.521Z,20.10
2018-09-08T11:00:09.882Z,20.10
2018-09-08T11:02:42.710Z,20.10
2018-09-08T11:05:15.021Z,20.30
2018-09-08T11:07:47.472Z,20.30
2018-09-08T11:10:20.024Z,20.50
2018-09-08T11:12:52.533Z,20.60
2018-09-08T11:15:25.094Z,20.80
2018-09-08T11:17:57.582Z,20.90
2018-09-08T11:20:30.151Z,21.10
2018-09-08T11:23:02.558Z,21.10
2018-09-08T11:25:35.077Z,21.20
2018-09-08T11:28:07.691Z,21.30
2018-09-08T11:30:40.344Z,21.50
2018-09-08T11:33:12.779Z,21.60
2018-09-08T11:35:45.361Z,21.70
2018-09-08T11:38:18.035Z,21.80
2018-09-08T11:40:50.503Z,21.70
2018-09-08T11:43:23.051Z,21.60
2018-09-08T11:45:55.788Z,21.50
2018-09-08T11:48:28.490Z,21.30
2018-09-08T11:51:02.640Z,21.10
2018-09-08T11:53:36.499Z,20.90
2018-09-08T11:56:09.563Z,20.80
2018-09-08T11:58:42.627Z,20.90
2018-09-08T12:01:18.248Z,21.00
2018-09-08T12:03:53.041Z,20.90
2018-09-08T12:06:27.470Z,20.80
2018-09-08T12:09:00.184Z,21.00
2018-09-08T12:11:32.790Z,21.30
2018-09-08T12:14:12.312Z,21.60
2018-09-08T12:16:50.611Z,22.00
2018-09-08T12:19:23.210Z,22.20
2018-09-08T12:21:55.646Z,22.20
2018-09-08T12:24:28.214Z,22.20
2018-09-08T12:27:00.913Z,22.10
2018-09-08T12:29:33.497Z,22.20
2018-09-08T12:32:05.998Z,22.10
2018-09-08T12:34:43.142Z,22.10
2018-09-08T12:37:20.198Z,22.10
2018-09-08T12:39:55.244Z,22.00
2018-09-08T12:42:32.185Z,22.00
2018-09-08T12:45:10.068Z,22.00
2018-09-08T12:47:42.734Z,22.00
2018-09-08T12:50:15.503Z,22.00
2018-09-08T12:52:48.409Z,22.10
2018-09-08T12:55:21.001Z,22.10
2018-09-08T12:57:55.594Z,22.40
2018-09-08T13:00:29.360Z,22.60
2018-09-08T13:03:01.924Z,22.50
2018-09-08T13:05:34.453Z,22.40
2018-09-08T13:08:07.394Z,22.40
2018-09-08T13:10:39.894Z,22.50
2018-09-08T13:13:12.682Z,22.60
2018-09-08T13:15:45.458Z,22.90
2018-09-08T13:18:17.970Z,23.00
2018-09-08T13:20:50.606Z,22.90
2018-09-08T13:23:38.425Z,22.80
2018-09-08T13:26:30.128Z,22.90
2018-09-08T13:29:04.098Z,23.00
2018-09-08T13:31:42.567Z,23.20
2018-09-08T13:34:16.611Z,23.30
2018-09-08T13:36:49.185Z,23.60
2018-09-08T13:39:23.080Z,24.00
2018-09-08T13:41:55.673Z,24.10
2018-09-08T13:44:30.836Z,24.10
2018-09-08T13:47:04.192Z,24.00
2018-09-08T13:49:36.777Z,23.80
2018-09-08T13:52:13.318Z,23.70
2018-09-08T13:54:49.794Z,23.60
2018-09-08T13:57:22.357Z,23.60
2018-09-08T13:59:54.866Z,23.80
2018-09-08T14:02:27.369Z,24.00
2018-09-08T14:05:00.700Z,24.10
2018-09-08T14:07:33.237Z,24.20
2018-09-08T14:10:05.843Z,24.20
2018-09-08T14:12:38.735Z,24.30
2018-09-08T14:15:36.588Z,24.40
2018-09-08T14:18:09.744Z,24.50
2018-09-08T14:20:42.251Z,24.50
2018-09-08T14:23:15.530Z,24.60
2018-09-08T14:25:48.176Z,24.50
2018-09-08T14:28:20.756Z,24.30
2018-09-08T14:30:53.323Z,24.20
2018-09-08T14:33:25.878Z,24.40
2018-09-08T14:35:58.337Z,24.60
2018-09-08T14:38:30.776Z,24.60
2018-09-08T14:41:03.296Z,24.20
2018-09-08T14:43:35.996Z,24.10
2018-09-08T14:46:08.535Z,23.90
2018-09-08T14:48:41.022Z,24.00
2018-09-08T14:51:13.657Z,24.00
2018-09-08T14:53:46.075Z,23.90
2018-09-08T14:56:18.604Z,23.90
2018-09-08T14:58:51.230Z,23.80
2018-09-08T15:01:23.784Z,23.90
2018-09-08T15:03:56.224Z,23.90
2018-09-08T15:06:28.800Z,23.80
2018-09-08T15:09:01.234Z,23.70
2018-09-08T15:11:33.742Z,23.70
2018-09-08T15:14:06.393Z,23.80
2018-09-08T15:16:38.908Z,24.10
2018-09-08T15:19:11.450Z,24.40
2018-09-08T15:21:44.027Z,24.40
2018-09-08T15:24:16.510Z,24.40
2018-09-08T15:26:49.120Z,24.40
2018-09-08T15:29:21.638Z,24.30
2018-09-08T15:31:54.151Z,23.90
2018-09-08T15:34:26.619Z,23.70
2018-09-08T15:36:59.179Z,23.40
2018-09-08T15:39:31.748Z,23.20
2018-09-08T15:42:04.332Z,23.10
2018-09-08T15:44:36.827Z,23.10
2018-09-08T15:47:09.383Z,23.00
2018-09-08T15:49:41.900Z,22.80
2018-09-08T15:52:14.421Z,22.50
2018-09-08T15:54:46.943Z,22.40
2018-09-08T15:57:19.485Z,22.40
2018-09-08T15:59:51.998Z,22.40
2018-09-08T16:02:24.578Z,22.30
2018-09-08T16:04:57.057Z,22.30
2018-09-08T16:07:29.656Z,22.30
2018-09-08T16:10:02.132Z,22.40
2018-09-08T16:12:35.024Z,22.50
2018-09-08T16:15:07.659Z,22.60
2018-09-08T16:17:40.173Z,22.50
2018-09-08T16:20:12.673Z,22.50
2018-09-08T16:22:45.238Z,22.50
2018-09-08T16:25:17.717Z,22.50
2018-09-08T16:27:50.398Z,22.50
2018-09-08T16:30:22.917Z,22.30
2018-09-08T16:32:55.502Z,22.20
2018-09-08T16:35:27.937Z,22.10
2018-09-08T16:38:00.514Z,21.90
2018-09-08T16:40:32.982Z,21.70
2018-09-08T16:43:05.561Z,21.60
2018-09-08T16:45:38.050Z,21.50
2018-09-08T16:48:10.625Z,21.30
2018-09-08T16:50:43.118Z,21.20
2018-09-08T16:53:15.714Z,21.20
2018-09-08T16:55:48.686Z,21.10
2018-09-08T16:58:21.290Z,21.10
2018-09-08T17:00:53.806Z,20.90
2018-09-08T17:03:26.365Z,20.90
2018-09-08T17:05:58.868Z,20.80
2018-09-08T17:08:31.482Z,20.70
2018-09-08T17:11:03.956Z,20.70
2018-09-08T17:13:36.537Z,20.60
2018-09-08T17:16:09.463Z,20.50
2018-09-08T17:18:42.393Z,20.40
2018-09-08T17:21:15.071Z,20.30
2018-09-08T17:23:47.927Z,20.20
2018-09-08T17:26:20.777Z,20.20
2018-09-08T17:28:53.585Z,20.10
2018-09-08T17:31:26.314Z,20.10
2018-09-08T17:33:59.131Z,20.00
2018-09-08T17:36:32.027Z,20.00
2018-09-08T17:39:05.008Z,20.00
2018-09-08T17:41:37.717Z,19.90
2018-09-08T17:44:10.728Z,19.90
2018-09-08T17:46:43.411Z,19.80
2018-09-08T17:49:16.237Z,19.80
2018-09-08T17:51:48.939Z,19.70
2018-09-08T17:54:21.658Z,19.60
2018-09-08T17:56:54.388Z,19.60
2018-09-08T17:59:27.204Z,19.50
2018-09-08T18:02:00.185Z,19.40
2018-09-08T18:04:32.986Z,19.30
2018-09-08T18:07:05.754Z,19.30
2018-09-08T18:09:38.629Z,19.30
2018-09-08T18:12:11.435Z,19.10
2018-09-08T18:14:44.380Z,19.10
2018-09-08T18:17:17.328Z,19.10
2018-09-08T18:19:50.109Z,19.00
2018-09-08T18:22:22.858Z,19.00
2018-09-08T18:24:55.786Z,18.90
2018-09-08T18:27:28.616Z,18.80
2018-09-08T18:30:01.443Z,18.80
2018-09-08T18:32:34.150Z,18.70
2018-09-08T18:35:07.292Z,18.70
2018-09-08T18:37:40.086Z,18.70
2018-09-08T18:40:13.892Z,18.70
2018-09-08T18:42:46.704Z,18.70
2018-09-08T18:45:19.478Z,18.60
2018-09-08T18:47:52.284Z,18.60
2018-09-08T18:50:25.208Z,18.60
2018-09-08T18:52:58.129Z,18.50
2018-09-08T18:55:34.875Z,18.40
2018-09-08T18:58:07.842Z,18.50
2018-09-08T19:00:40.881Z,18.40
2018-09-08T19:03:13.430Z,18.40
2018-09-08T19:05:46.001Z,18.40
2018-09-08T19:08:18.516Z,18.30
2018-09-08T19:10:51.201Z,18.30
2018-09-08T19:13:23.700Z,18.30
2018-09-08T19:15:56.890Z,18.20
2018-09-08T19:18:29.299Z,18.20
2018-09-08T19:21:01.865Z,18.20
2018-09-08T19:23:34.274Z,18.10
2018-09-08T19:26:06.925Z,18.10
2018-09-08T19:28:39.595Z,18.10
2018-09-08T19:31:12.201Z,18.10
2018-09-08T19:33:44.644Z,18.00
2018-09-08T19:36:17.192Z,18.00
2018-09-08T19:38:49.754Z,18.00
2018-09-08T19:41:22.353Z,18.00
2018-09-08T19:43:54.865Z,17.90
2018-09-08T19:46:32.207Z,17.90
2018-09-08T19:49:04.716Z,17.90
2018-09-08T19:51:37.334Z,17.90
2018-09-08T19:54:09.995Z,17.90
2018-09-08T19:56:47.251Z,17.90
2018-09-08T19:59:19.789Z,17.80
2018-09-08T20:01:52.382Z,17.80
2018-09-08T20:04:24.869Z,17.80
2018-09-08T20:06:57.437Z,17.80
2018-09-08T20:09:29.992Z,17.80
2018-09-08T20:12:02.738Z,17.80
2018-09-08T20:14:35.271Z,17.80
2018-09-08T20:17:08.042Z,17.80
2018-09-08T20:19:40.974Z,17.80
2018-09-08T20:22:13.581Z,17.70
2018-09-08T20:24:46.049Z,17.70
2018-09-08T20:27:18.831Z,17.70
2018-09-08T20:29:51.440Z,17.70
2018-09-08T20:32:24.043Z,17.70
2018-09-08T20:34:56.661Z,17.70
2018-09-08T20:37:29.245Z,17.60
2018-09-08T20:40:02.029Z,17.60
2018-09-08T20:42:34.750Z,17.50
2018-09-08T20:45:07.534Z,17.50
2018-09-08T20:47:40.881Z,17.40
2018-09-08T20:50:13.486Z,17.40
2018-09-08T20:52:46.451Z,17.30
2018-09-08T20:55:18.989Z,17.30
2018-09-08T20:57:51.590Z,17.30
2018-09-08T21:00:24.086Z,17.30
2018-09-08T21:02:57.515Z,17.20
2018-09-08T21:05:30.452Z,17.20
2018-09-08T21:08:03.048Z,17.20
2018-09-08T21:10:41.016Z,17.10
2018-09-08T21:13:13.662Z,17.10
2018-09-08T21:15:46.201Z,17.10
2018-09-08T21:18:18.974Z,17.10
2018-09-08T21:20:51.621Z,17.00
2018-09-08T21:23:24.332Z,17.00
2018-09-08T21:25:56.901Z,16.90
2018-09-08T21:28:29.586Z,16.90
2018-09-08T21:31:02.050Z,16.90
2018-09-08T21:33:34.615Z,16.90
2018-09-08T21:36:07.129Z,16.90
2018-09-08T21:38:39.826Z,16.90
2018-09-08T21:41:12.387Z,16.90
2018-09-08T21:43:45.022Z,16.90
2018-09-08T21:46:17.623Z,16.90
2018-09-08T21:48:50.217Z,16.90
2018-09-08T21:51:22.830Z,16.90
2018-09-08T21:53:55.516Z,16.80
2018-09-08T21:56:27.995Z,16.80
2018-09-08T21:59:00.591Z,16.80
2018-09-08T22:01:33.059Z,16.90
2018-09-08T22:04:05.672Z,16.90
2018-09-08T22:06:38.239Z,16.90
2018-09-08T22:09:12.018Z,16.90
2018-09-08T22:11:44.513Z,16.90
2018-09-08T22:14:17.071Z,16.80
2018-09-08T22:16:49.508Z,16.80
2018-09-08T22:19:22.032Z,16.80
2018-09-08T22:21:54.543Z,16.80
2018-09-08T22:24:27.125Z,16.80
2018-09-08T22:26:59.680Z,16.70
2018-09-08T22:29:32.268Z,16.80
2018-09-08T22:32:04.719Z,16.80
2018-09-08T22:34:37.262Z,16.70
2018-09-08T22:37:10.100Z,16.70
2018-09-08T22:39:42.635Z,16.70
2018-09-08T22:42:15.110Z,16.70
2018-09-08T22:44:47.697Z,16.70
2018-09-08T22:47:20.207Z,16.70
2018-09-08T22:49:52.800Z,16.70
2018-09-08T22:52:25.291Z,16.70
2018-09-08T22:54:57.932Z,16.70
2018-09-08T22:57:30.401Z,16.70
2018-09-08T23:00:02.945Z,16.70
2018-09-08T23:02:35.460Z,16.70
2018-09-08T23:05:08.089Z,16.70
2018-09-08T23:07:40.607Z,16.70
2018-09-08T23:10:13.149Z,16.70
2018-09-08T23:12:45.601Z,16.70
2018-09-08T23:15:18.121Z,16.70
2018-09-08T23:17:50.699Z,16.70
2018-09-08T23:20:23.272Z,16.60
2018-09-08T23:22:55.739Z,16.70
2018-09-08T23:25:28.293Z,16.60
2018-09-08T23:28:00.884Z,16.60
2018-09-08T23:30:33.422Z,16.60
2018-09-08T23:33:05.885Z,16.60
2018-09-08T23:35:38.448Z,16.60
2018-09-08T23:38:10.962Z,16.60
2018-09-08T23:40:43.568Z,16.60
2018-09-08T23:43:16.040Z,16.60
2018-09-08T23:45:48.640Z,16.60
2018-09-08T23:48:21.217Z,16.50
2018-09-08T23:50:54.728Z,16.50
2018-09-08T23:53:27.901Z,16.50
2018-09-08T23:56:00.618Z,16.50
2018-09-08T23:58:33.336Z,16.40
